MSC Flavia — 3FBD7 — position and weather

sailwx.info

Track history (hours):
 
Tides and Currents Weather Stations Pressure Air Temp Water Temp Dewpoint Dewpoint Depression Visibility Wind Speed Wind Dir Waves Ship Positions

MSC Flavia

Last reported at 2014-Dec-19 22:28 UTC. Time now 2014-Dec-21 09:16 UTC.
Position N 50°25' W 000°32'.

Length 366 m; draft 15.3 m.

Type: Ship (hazmat cat A). MMSI: 373004000.

Date/timePositionNaut miles runAvg speedWind from/ knotsBaromVisibWave heightAir tempDewpointWater temp
2014-Dec-19 22:28N 50°25' W 000°32'3418.0
2014-Dec-19 20:33N 50°35' E 000°19'1716.9
2014-Dec-19 19:33N 50°41' E 000°44'1717.5
2014-Dec-19 18:33N 50°51' E 001°07'1919.3
2014-Dec-19 17:33N 51°03' E 001°30'2020.3
2014-Dec-19 16:33N 51°19' E 001°50'1918.8
2014-Dec-19 15:33N 51°34' E 002°08'1818.1
2014-Dec-19 14:33N 51°48' E 002°28'4715.8
2014-Dec-19 11:33N 52°04' E 003°40'1110.8
2014-Dec-19 10:33N 52°01' E 003°57'6 5.6
2014-Dec-19 09:33N 51°58' E 004°04'0 0.3
2014-Dec-19 08:33N 51°58' E 004°04'0 0.0
2014-Dec-19 07:33N 51°58' E 004°04'0 0.0
2014-Dec-19 06:33N 51°58' E 004°04'0 0.0
2014-Dec-19 05:30N 51°58' E 004°04'0 0.0
2014-Dec-19 04:33N 51°58' E 004°04'0 0.0
2014-Dec-19 03:33N 51°58' E 004°04'0 0.0
2014-Dec-19 02:33N 51°58' E 004°04'0 0.0
2014-Dec-19 01:33N 51°58' E 004°04'0 0.0
2014-Dec-19 00:33N 51°58' E 004°04'0 0.0
2014-Dec-18 23:33N 51°58' E 004°04'0 0.0
2014-Dec-18 22:33N 51°58' E 004°04'0 0.0
2014-Dec-18 21:33N 51°58' E 004°04'0 0.0
2014-Dec-18 20:33N 51°58' E 004°04'0 0.0
2014-Dec-18 19:30N 51°58' E 004°04'0 0.0
2014-Dec-18 18:30N 51°58' E 004°04'0 0.0
2014-Dec-18 17:33N 51°58' E 004°04'0 0.0
2014-Dec-18 16:33N 51°58' E 004°04'0 0.0
2014-Dec-18 15:30N 51°58' E 004°04'0 0.0
2014-Dec-18 14:33N 51°58' E 004°04'0 0.0
2014-Dec-18 13:33N 51°58' E 004°04'0 0.0
2014-Dec-18 12:33N 51°58' E 004°04'0 0.0
2014-Dec-18 11:33N 51°58' E 004°04'0 0.0
2014-Dec-18 10:33N 51°58' E 004°04'0 0.0
2014-Dec-18 09:33N 51°58' E 004°04'0 0.0
2014-Dec-18 08:33N 51°58' E 004°04'0 0.0
2014-Dec-18 07:33N 51°58' E 004°04'0 0.0
2014-Dec-18 06:33N 51°58' E 004°04'0 0.0
2014-Dec-18 05:33N 51°58' E 004°04'0 0.0
2014-Dec-18 04:33N 51°58' E 004°04'0 0.0
2014-Dec-18 03:33N 51°58' E 004°04'0 0.0
2014-Dec-18 02:30N 51°58' E 004°04'1 1.4
2014-Dec-18 01:34N 51°59' E 004°05'1110.7
2014-Dec-18 00:34N 52°01' E 003°48'9 8.6
2014-Dec-17 23:33N 51°57' E 003°35'5 4.0
2014-Dec-17 22:17N 51°54' E 003°29'0 0.0
2014-Dec-17 21:33N 51°54' E 003°29'0 0.0
2014-Dec-17 20:32N 51°54' E 003°29'0 0.0
2014-Dec-17 19:29N 51°54' E 003°29'0 0.1
2014-Dec-17 18:32N 51°53' E 003°29'0 0.1
2014-Dec-17 17:26N 51°53' E 003°29'0 0.0
2014-Dec-17 16:14N 51°53' E 003°29'0 0.1
2014-Dec-17 15:29N 51°53' E 003°29'9 9.8
2014-Dec-17 14:33N 51°48' E 003°18'1211.8
2014-Dec-17 13:33N 51°37' E 003°10'1514.7
2014-Dec-17 12:34N 51°27' E 002°53'1313.1
2014-Dec-17 11:33N 51°25' E 003°14'1313.5
2014-Dec-17 10:33N 51°26' E 003°36'10 9.7
2014-Dec-17 09:34N 51°21' E 003°49'9 8.9
2014-Dec-17 08:33N 51°24' E 004°02'8 8.1
2014-Dec-17 07:33N 51°21' E 004°14'2 2.0
2014-Dec-17 06:34N 51°21' E 004°17'0 0.0
2014-Dec-17 05:33N 51°21' E 004°17'2 1.8
2014-Dec-17 04:33N 51°19' E 004°19'0 0.0
2014-Dec-17 03:33N 51°19' E 004°19'0 0.0
2014-Dec-17 02:33N 51°19' E 004°19'0 0.0
2014-Dec-17 01:33N 51°19' E 004°19'0 0.0
2014-Dec-17 00:33N 51°19' E 004°19'0 0.0
2014-Dec-16 23:33N 51°19' E 004°19'0 0.0
2014-Dec-16 22:30N 51°19' E 004°19'0 0.0
2014-Dec-16 21:33N 51°19' E 004°19'0 0.0
2014-Dec-16 20:33N 51°19' E 004°19'0 0.0
2014-Dec-16 19:33N 51°19' E 004°19'0 0.0
2014-Dec-16 18:30N 51°19' E 004°19'0 0.0
2014-Dec-16 17:33N 51°19' E 004°19'0 0.0
2014-Dec-16 16:33N 51°19' E 004°19'0 0.0
2014-Dec-16 15:33N 51°19' E 004°19'0 0.0
2014-Dec-16 14:33N 51°19' E 004°19'0 0.0
2014-Dec-16 13:33N 51°19' E 004°19'0 0.0
2014-Dec-16 12:33N 51°19' E 004°19'0 0.0
2014-Dec-16 11:33N 51°19' E 004°19'0 0.0
2014-Dec-16 10:33N 51°19' E 004°19'0 0.0
2014-Dec-16 09:33N 51°19' E 004°19'0 0.0
2014-Dec-16 08:33N 51°19' E 004°19'0 0.0
2014-Dec-16 07:30N 51°19' E 004°19'0 0.0
2014-Dec-16 06:33N 51°19' E 004°19'0 0.0
2014-Dec-16 05:33N 51°19' E 004°19'0 0.0
2014-Dec-16 04:24N 51°19' E 004°19'0 0.0
2014-Dec-16 02:15N 51°19' E 004°19'0 0.0
2014-Dec-16 01:09N 51°19' E 004°19'0 0.0
2014-Dec-16 00:06N 51°19' E 004°19'0 0.0
2014-Dec-15 23:33N 51°19' E 004°19'0 0.0
2014-Dec-15 22:33N 51°19' E 004°19'0 0.0
2014-Dec-15 21:33N 51°19' E 004°19'0 0.0
2014-Dec-15 20:33N 51°19' E 004°19'0 0.0
2014-Dec-15 19:33N 51°19' E 004°19'0 0.0
2014-Dec-15 18:33N 51°19' E 004°19'0 0.0
2014-Dec-15 17:33N 51°19' E 004°19'0 0.0
2014-Dec-15 16:33N 51°19' E 004°19'0 0.0
2014-Dec-15 15:33N 51°19' E 004°19'0 0.0
2014-Dec-15 14:33N 51°19' E 004°19'0 0.0
2014-Dec-15 13:33N 51°19' E 004°19'0 0.0
2014-Dec-15 12:33N 51°19' E 004°19'0 0.0
2014-Dec-15 11:30N 51°19' E 004°19'0 0.0
2014-Dec-15 10:30N 51°19' E 004°19'0 0.0
2014-Dec-15 09:33N 51°19' E 004°19'0 0.0
2014-Dec-15 08:33N 51°19' E 004°19'0 0.0
2014-Dec-15 07:33N 51°19' E 004°19'0 0.0
2014-Dec-15 06:33N 51°19' E 004°19'0 0.0
2014-Dec-15 05:33N 51°19' E 004°19'0 0.0
2014-Dec-15 04:33N 51°19' E 004°19'0 0.0
2014-Dec-15 03:33N 51°19' E 004°19'0 0.0
2014-Dec-15 02:33N 51°19' E 004°19'0 0.0
2014-Dec-15 01:33N 51°19' E 004°19'0 0.0
2014-Dec-15 00:33N 51°19' E 004°19'0 0.0
2014-Dec-14 23:33N 51°19' E 004°19'0 0.0
2014-Dec-14 22:33N 51°19' E 004°19'0 0.0
2014-Dec-14 21:33N 51°19' E 004°19'0 0.0
2014-Dec-14 20:33N 51°19' E 004°19'0 0.0
2014-Dec-14 19:33N 51°19' E 004°19'0 0.0
2014-Dec-14 18:33N 51°19' E 004°19'0 0.0
2014-Dec-14 17:33N 51°19' E 004°19'0 0.0
2014-Dec-14 16:33N 51°19' E 004°19'0 0.0
2014-Dec-14 15:33N 51°19' E 004°19'0 0.0
2014-Dec-14 14:33N 51°19' E 004°19'0 0.0
2014-Dec-14 13:33N 51°19' E 004°19'0 0.0
2014-Dec-14 12:33N 51°19' E 004°19'0 0.0
2014-Dec-14 11:30N 51°19' E 004°19'0 0.0
2014-Dec-14 10:30N 51°19' E 004°19'0 0.0
2014-Dec-14 09:33N 51°19' E 004°19'0 0.0
2014-Dec-14 08:33N 51°19' E 004°19'0 0.0
2014-Dec-14 07:33N 51°19' E 004°19'0 0.0
2014-Dec-14 06:33N 51°19' E 004°19'0 0.0
2014-Dec-14 05:33N 51°19' E 004°19'0 0.0
2014-Dec-14 04:33N 51°19' E 004°19'0 0.0
2014-Dec-14 03:33N 51°19' E 004°19'0 0.0
2014-Dec-14 02:33N 51°19' E 004°19'0 0.0
2014-Dec-14 01:33N 51°19' E 004°19'0 0.0
2014-Dec-14 00:33N 51°19' E 004°19'0 0.0
2014-Dec-13 23:33N 51°19' E 004°19'0 0.0
2014-Dec-13 22:33N 51°19' E 004°19'0 0.0
2014-Dec-13 21:33N 51°19' E 004°19'0 0.0
2014-Dec-13 20:33N 51°19' E 004°19'0 0.0
2014-Dec-13 19:33N 51°19' E 004°19'0 0.0
2014-Dec-13 18:30N 51°19' E 004°19'0 0.0
2014-Dec-13 17:33N 51°19' E 004°19'0 0.0
2014-Dec-13 16:33N 51°19' E 004°19'0 0.0
2014-Dec-13 15:33N 51°19' E 004°19'0 0.0
2014-Dec-13 14:33N 51°19' E 004°19'0 0.0
2014-Dec-13 13:33N 51°19' E 004°19'0 0.0
2014-Dec-13 12:33N 51°19' E 004°19'0 0.0
2014-Dec-13 11:33N 51°19' E 004°19'0 0.0
2014-Dec-13 10:33N 51°19' E 004°19'0 0.0
2014-Dec-13 09:33N 51°19' E 004°19'0 0.0
2014-Dec-13 08:33N 51°19' E 004°19'0 0.0
2014-Dec-13 07:33N 51°19' E 004°19'0 0.0
2014-Dec-13 06:33N 51°19' E 004°19'0 0.0
2014-Dec-13 05:33N 51°19' E 004°19'0 0.0
2014-Dec-13 04:33N 51°19' E 004°19'0 0.0
2014-Dec-13 03:33N 51°19' E 004°19'0 0.0
2014-Dec-13 02:33N 51°19' E 004°19'0 0.0
2014-Dec-13 01:30N 51°19' E 004°19'0 0.0
2014-Dec-13 00:33N 51°19' E 004°19'0 0.0
2014-Dec-12 23:33N 51°19' E 004°19'0 0.0
2014-Dec-12 22:33N 51°19' E 004°19'2 1.7
2014-Dec-12 21:33N 51°21' E 004°17'0 0.1
2014-Dec-12 20:34N 51°21' E 004°17'4 3.6
2014-Dec-12 19:33N 51°23' E 004°13'9 9.5
2014-Dec-12 18:34N 51°25' E 003°58'10 9.7
2014-Dec-12 17:33N 51°25' E 003°42'1111.0
2014-Dec-12 16:33N 51°25' E 003°25'1717.3
2014-Dec-12 15:33N 51°25' E 002°57'7 7.3
2014-Dec-12 14:34N 51°27' E 002°46'6 6.0
2014-Dec-12 13:33N 51°25' E 002°55'8 8.1
2014-Dec-12 12:34N 51°24' E 003°08'4 4.2
2014-Dec-12 11:33N 51°20' E 003°12'0 0.0
2014-Dec-12 10:32N 51°20' E 003°12'0 0.0
2014-Dec-12 09:29N 51°20' E 003°12'0 0.0
2014-Dec-12 08:32N 51°20' E 003°12'0 0.0
2014-Dec-12 07:32N 51°20' E 003°12'0 0.0
2014-Dec-12 06:32N 51°20' E 003°12'0 0.0
2014-Dec-12 05:29N 51°20' E 003°12'0 0.0
2014-Dec-12 04:32N 51°20' E 003°12'0 0.0
2014-Dec-12 03:26N 51°20' E 003°12'0 0.0
2014-Dec-12 02:29N 51°20' E 003°12'0 0.0
2014-Dec-12 01:32N 51°20' E 003°12'0 0.0
2014-Dec-12 00:32N 51°20' E 003°12'0 0.0
2014-Dec-11 23:26N 51°20' E 003°12'0 0.0
2014-Dec-11 22:26N 51°20' E 003°12'0 0.0
2014-Dec-11 21:29N 51°20' E 003°12'0 0.0
2014-Dec-11 20:32N 51°20' E 003°12'0 0.0
2014-Dec-11 19:32N 51°20' E 003°12'0 0.3
2014-Dec-11 18:33N 51°21' E 003°12'4 4.5
2014-Dec-11 17:34N 51°24' E 003°07'1212.2
2014-Dec-11 16:33N 51°25' E 002°47'1110.8
2014-Dec-11 15:31N 51°22' E 002°30'1919.8
2014-Dec-11 14:33N 51°24' E 001°60'2120.7
2014-Dec-11 13:33N 51°42' E 001°45'1515.2
2014-Dec-11 12:34N 51°55' E 001°33'9 9.0
2014-Dec-11 11:33N 51°57' E 001°19'0 0.1
2014-Dec-11 10:31N 51°57' E 001°19'0 0.0
2014-Dec-11 09:31N 51°57' E 001°19'0 0.0
2014-Dec-11 08:31N 51°57' E 001°19'0 0.0
2014-Dec-11 07:31N 51°57' E 001°19'0 0.0
2014-Dec-11 06:31N 51°57' E 001°19'0 0.0
2014-Dec-11 05:31N 51°57' E 001°19'0 0.0
2014-Dec-11 04:31N 51°57' E 001°19'0 0.0
2014-Dec-11 03:31N 51°57' E 001°19'0 0.0
2014-Dec-11 02:31N 51°57' E 001°19'0 0.0
2014-Dec-11 01:31N 51°57' E 001°19'0 0.0
2014-Dec-11 00:31N 51°57' E 001°19'0 0.0
2014-Dec-10 23:31N 51°57' E 001°19'0 0.0
2014-Dec-10 22:31N 51°57' E 001°19'0 0.0
2014-Dec-10 21:31N 51°57' E 001°19'0 0.0
2014-Dec-10 20:28N 51°57' E 001°19'0 0.0
2014-Dec-10 19:28N 51°57' E 001°19'0 0.0
2014-Dec-10 18:31N 51°57' E 001°19'0 0.0
2014-Dec-10 17:28N 51°57' E 001°19'0 0.0
2014-Dec-10 16:31N 51°57' E 001°19'0 0.0
2014-Dec-10 15:31N 51°57' E 001°19'0 0.0
2014-Dec-10 14:31N 51°57' E 001°19'0 0.0
2014-Dec-10 13:31N 51°57' E 001°19'0 0.0
2014-Dec-10 12:31N 51°57' E 001°19'0 0.0
2014-Dec-10 11:31N 51°57' E 001°19'0 0.0
2014-Dec-10 10:31N 51°57' E 001°19'0 0.0
2014-Dec-10 09:31N 51°57' E 001°19'0 0.0
2014-Dec-10 08:31N 51°57' E 001°19'0 0.0
2014-Dec-10 07:31N 51°57' E 001°19'0 0.0
2014-Dec-10 06:31N 51°57' E 001°19'0 0.0
2014-Dec-10 05:31N 51°57' E 001°19'0 0.0
2014-Dec-10 04:31N 51°57' E 001°19'0 0.0
2014-Dec-10 03:31N 51°57' E 001°19'0 0.0
2014-Dec-10 02:31N 51°57' E 001°19'0 0.0
2014-Dec-10 01:31N 51°57' E 001°19'0 0.0
2014-Dec-10 00:31N 51°57' E 001°19'0 0.0
2014-Dec-09 23:31N 51°57' E 001°19'0 0.0
2014-Dec-09 22:31N 51°57' E 001°19'  
Track history (hours):
 
Tides and Currents Weather Stations Pressure Air Temp Water Temp Dewpoint Dewpoint Depression Visibility Wind Speed Wind Dir Waves Ship Positions

MSC Flavia

Last reported at 2014-Dec-19 22:28 UTC. Time now 2014-Dec-21 09:16 UTC.
Position N 50°25' W 000°32'.

Length 366 m; draft 15.3 m.

Type: Ship (hazmat cat A). MMSI: 373004000.

Date/timePositionNaut miles runAvg speedWind from/ knotsBaromVisibWave heightAir tempDewpointWater temp
2014-Dec-19 22:28N 50°25' W 000°32'3418.0
2014-Dec-19 20:33N 50°35' E 000°19'1716.9
2014-Dec-19 19:33N 50°41' E 000°44'1717.5
2014-Dec-19 18:33N 50°51' E 001°07'1919.3
2014-Dec-19 17:33N 51°03' E 001°30'2020.3
2014-Dec-19 16:33N 51°19' E 001°50'1918.8
2014-Dec-19 15:33N 51°34' E 002°08'1818.1
2014-Dec-19 14:33N 51°48' E 002°28'4715.8
2014-Dec-19 11:33N 52°04' E 003°40'1110.8
2014-Dec-19 10:33N 52°01' E 003°57'6 5.6
2014-Dec-19 09:33N 51°58' E 004°04'0 0.3
2014-Dec-19 08:33N 51°58' E 004°04'0 0.0
2014-Dec-19 07:33N 51°58' E 004°04'0 0.0
2014-Dec-19 06:33N 51°58' E 004°04'0 0.0
2014-Dec-19 05:30N 51°58' E 004°04'0 0.0
2014-Dec-19 04:33N 51°58' E 004°04'0 0.0
2014-Dec-19 03:33N 51°58' E 004°04'0 0.0
2014-Dec-19 02:33N 51°58' E 004°04'0 0.0
2014-Dec-19 01:33N 51°58' E 004°04'0 0.0
2014-Dec-19 00:33N 51°58' E 004°04'0 0.0
2014-Dec-18 23:33N 51°58' E 004°04'0 0.0
2014-Dec-18 22:33N 51°58' E 004°04'0 0.0
2014-Dec-18 21:33N 51°58' E 004°04'0 0.0
2014-Dec-18 20:33N 51°58' E 004°04'0 0.0
2014-Dec-18 19:30N 51°58' E 004°04'0 0.0
2014-Dec-18 18:30N 51°58' E 004°04'0 0.0
2014-Dec-18 17:33N 51°58' E 004°04'0 0.0
2014-Dec-18 16:33N 51°58' E 004°04'0 0.0
2014-Dec-18 15:30N 51°58' E 004°04'0 0.0
2014-Dec-18 14:33N 51°58' E 004°04'0 0.0
2014-Dec-18 13:33N 51°58' E 004°04'0 0.0
2014-Dec-18 12:33N 51°58' E 004°04'0 0.0
2014-Dec-18 11:33N 51°58' E 004°04'0 0.0
2014-Dec-18 10:33N 51°58' E 004°04'0 0.0
2014-Dec-18 09:33N 51°58' E 004°04'0 0.0
2014-Dec-18 08:33N 51°58' E 004°04'0 0.0
2014-Dec-18 07:33N 51°58' E 004°04'0 0.0
2014-Dec-18 06:33N 51°58' E 004°04'0 0.0
2014-Dec-18 05:33N 51°58' E 004°04'0 0.0
2014-Dec-18 04:33N 51°58' E 004°04'0 0.0
2014-Dec-18 03:33N 51°58' E 004°04'0 0.0
2014-Dec-18 02:30N 51°58' E 004°04'1 1.4
2014-Dec-18 01:34N 51°59' E 004°05'1110.7
2014-Dec-18 00:34N 52°01' E 003°48'9 8.6
2014-Dec-17 23:33N 51°57' E 003°35'5 4.0
2014-Dec-17 22:17N 51°54' E 003°29'0 0.0
2014-Dec-17 21:33N 51°54' E 003°29'0 0.0
2014-Dec-17 20:32N 51°54' E 003°29'0 0.0
2014-Dec-17 19:29N 51°54' E 003°29'0 0.1
2014-Dec-17 18:32N 51°53' E 003°29'0 0.1
2014-Dec-17 17:26N 51°53' E 003°29'0 0.0
2014-Dec-17 16:14N 51°53' E 003°29'0 0.1
2014-Dec-17 15:29N 51°53' E 003°29'9 9.8
2014-Dec-17 14:33N 51°48' E 003°18'1211.8
2014-Dec-17 13:33N 51°37' E 003°10'1514.7
2014-Dec-17 12:34N 51°27' E 002°53'1313.1
2014-Dec-17 11:33N 51°25' E 003°14'1313.5
2014-Dec-17 10:33N 51°26' E 003°36'10 9.7
2014-Dec-17 09:34N 51°21' E 003°49'9 8.9
2014-Dec-17 08:33N 51°24' E 004°02'8 8.1
2014-Dec-17 07:33N 51°21' E 004°14'2 2.0
2014-Dec-17 06:34N 51°21' E 004°17'0 0.0
2014-Dec-17 05:33N 51°21' E 004°17'2 1.8
2014-Dec-17 04:33N 51°19' E 004°19'0 0.0
2014-Dec-17 03:33N 51°19' E 004°19'0 0.0
2014-Dec-17 02:33N 51°19' E 004°19'0 0.0
2014-Dec-17 01:33N 51°19' E 004°19'0 0.0
2014-Dec-17 00:33N 51°19' E 004°19'0 0.0
2014-Dec-16 23:33N 51°19' E 004°19'0 0.0
2014-Dec-16 22:30N 51°19' E 004°19'0 0.0
2014-Dec-16 21:33N 51°19' E 004°19'0 0.0
2014-Dec-16 20:33N 51°19' E 004°19'0 0.0
2014-Dec-16 19:33N 51°19' E 004°19'0 0.0
2014-Dec-16 18:30N 51°19' E 004°19'0 0.0
2014-Dec-16 17:33N 51°19' E 004°19'0 0.0
2014-Dec-16 16:33N 51°19' E 004°19'0 0.0
2014-Dec-16 15:33N 51°19' E 004°19'0 0.0
2014-Dec-16 14:33N 51°19' E 004°19'0 0.0
2014-Dec-16 13:33N 51°19' E 004°19'0 0.0
2014-Dec-16 12:33N 51°19' E 004°19'0 0.0
2014-Dec-16 11:33N 51°19' E 004°19'0 0.0
2014-Dec-16 10:33N 51°19' E 004°19'0 0.0
2014-Dec-16 09:33N 51°19' E 004°19'0 0.0
2014-Dec-16 08:33N 51°19' E 004°19'0 0.0
2014-Dec-16 07:30N 51°19' E 004°19'0 0.0
2014-Dec-16 06:33N 51°19' E 004°19'0 0.0
2014-Dec-16 05:33N 51°19' E 004°19'0 0.0
2014-Dec-16 04:24N 51°19' E 004°19'0 0.0
2014-Dec-16 02:15N 51°19' E 004°19'0 0.0
2014-Dec-16 01:09N 51°19' E 004°19'0 0.0
2014-Dec-16 00:06N 51°19' E 004°19'0 0.0
2014-Dec-15 23:33N 51°19' E 004°19'0 0.0
2014-Dec-15 22:33N 51°19' E 004°19'0 0.0
2014-Dec-15 21:33N 51°19' E 004°19'0 0.0
2014-Dec-15 20:33N 51°19' E 004°19'0 0.0
2014-Dec-15 19:33N 51°19' E 004°19'0 0.0
2014-Dec-15 18:33N 51°19' E 004°19'0 0.0
2014-Dec-15 17:33N 51°19' E 004°19'0 0.0
2014-Dec-15 16:33N 51°19' E 004°19'0 0.0
2014-Dec-15 15:33N 51°19' E 004°19'0 0.0
2014-Dec-15 14:33N 51°19' E 004°19'0 0.0
2014-Dec-15 13:33N 51°19' E 004°19'0 0.0
2014-Dec-15 12:33N 51°19' E 004°19'0 0.0
2014-Dec-15 11:30N 51°19' E 004°19'0 0.0
2014-Dec-15 10:30N 51°19' E 004°19'0 0.0
2014-Dec-15 09:33N 51°19' E 004°19'0 0.0
2014-Dec-15 08:33N 51°19' E 004°19'0 0.0
2014-Dec-15 07:33N 51°19' E 004°19'0 0.0
2014-Dec-15 06:33N 51°19' E 004°19'0 0.0
2014-Dec-15 05:33N 51°19' E 004°19'0 0.0
2014-Dec-15 04:33N 51°19' E 004°19'0 0.0
2014-Dec-15 03:33N 51°19' E 004°19'0 0.0
2014-Dec-15 02:33N 51°19' E 004°19'0 0.0
2014-Dec-15 01:33N 51°19' E 004°19'0 0.0
2014-Dec-15 00:33N 51°19' E 004°19'0 0.0
2014-Dec-14 23:33N 51°19' E 004°19'0 0.0
2014-Dec-14 22:33N 51°19' E 004°19'0 0.0
2014-Dec-14 21:33N 51°19' E 004°19'0 0.0
2014-Dec-14 20:33N 51°19' E 004°19'0 0.0
2014-Dec-14 19:33N 51°19' E 004°19'0 0.0
2014-Dec-14 18:33N 51°19' E 004°19'0 0.0
2014-Dec-14 17:33N 51°19' E 004°19'0 0.0
2014-Dec-14 16:33N 51°19' E 004°19'0 0.0
2014-Dec-14 15:33N 51°19' E 004°19'0 0.0
2014-Dec-14 14:33N 51°19' E 004°19'0 0.0
2014-Dec-14 13:33N 51°19' E 004°19'0 0.0
2014-Dec-14 12:33N 51°19' E 004°19'0 0.0
2014-Dec-14 11:30N 51°19' E 004°19'0 0.0
2014-Dec-14 10:30N 51°19' E 004°19'0 0.0
2014-Dec-14 09:33N 51°19' E 004°19'0 0.0
2014-Dec-14 08:33N 51°19' E 004°19'0 0.0
2014-Dec-14 07:33N 51°19' E 004°19'0 0.0
2014-Dec-14 06:33N 51°19' E 004°19'0 0.0
2014-Dec-14 05:33N 51°19' E 004°19'0 0.0
2014-Dec-14 04:33N 51°19' E 004°19'0 0.0
2014-Dec-14 03:33N 51°19' E 004°19'0 0.0
2014-Dec-14 02:33N 51°19' E 004°19'0 0.0
2014-Dec-14 01:33N 51°19' E 004°19'0 0.0
2014-Dec-14 00:33N 51°19' E 004°19'0 0.0
2014-Dec-13 23:33N 51°19' E 004°19'0 0.0
2014-Dec-13 22:33N 51°19' E 004°19'0 0.0
2014-Dec-13 21:33N 51°19' E 004°19'0 0.0
2014-Dec-13 20:33N 51°19' E 004°19'0 0.0
2014-Dec-13 19:33N 51°19' E 004°19'0 0.0
2014-Dec-13 18:30N 51°19' E 004°19'0 0.0
2014-Dec-13 17:33N 51°19' E 004°19'0 0.0
2014-Dec-13 16:33N 51°19' E 004°19'0 0.0
2014-Dec-13 15:33N 51°19' E 004°19'0 0.0
2014-Dec-13 14:33N 51°19' E 004°19'0 0.0
2014-Dec-13 13:33N 51°19' E 004°19'0 0.0
2014-Dec-13 12:33N 51°19' E 004°19'0 0.0
2014-Dec-13 11:33N 51°19' E 004°19'0 0.0
2014-Dec-13 10:33N 51°19' E 004°19'0 0.0
2014-Dec-13 09:33N 51°19' E 004°19'0 0.0
2014-Dec-13 08:33N 51°19' E 004°19'0 0.0
2014-Dec-13 07:33N 51°19' E 004°19'0 0.0
2014-Dec-13 06:33N 51°19' E 004°19'0 0.0
2014-Dec-13 05:33N 51°19' E 004°19'0 0.0
2014-Dec-13 04:33N 51°19' E 004°19'0 0.0
2014-Dec-13 03:33N 51°19' E 004°19'0 0.0
2014-Dec-13 02:33N 51°19' E 004°19'0 0.0
2014-Dec-13 01:30N 51°19' E 004°19'0 0.0
2014-Dec-13 00:33N 51°19' E 004°19'0 0.0
2014-Dec-12 23:33N 51°19' E 004°19'0 0.0
2014-Dec-12 22:33N 51°19' E 004°19'2 1.7
2014-Dec-12 21:33N 51°21' E 004°17'0 0.1
2014-Dec-12 20:34N 51°21' E 004°17'4 3.6
2014-Dec-12 19:33N 51°23' E 004°13'9 9.5
2014-Dec-12 18:34N 51°25' E 003°58'10 9.7
2014-Dec-12 17:33N 51°25' E 003°42'1111.0
2014-Dec-12 16:33N 51°25' E 003°25'1717.3
2014-Dec-12 15:33N 51°25' E 002°57'7 7.3
2014-Dec-12 14:34N 51°27' E 002°46'6 6.0
2014-Dec-12 13:33N 51°25' E 002°55'8 8.1
2014-Dec-12 12:34N 51°24' E 003°08'4 4.2
2014-Dec-12 11:33N 51°20' E 003°12'0 0.0
2014-Dec-12 10:32N 51°20' E 003°12'0 0.0
2014-Dec-12 09:29N 51°20' E 003°12'0 0.0
2014-Dec-12 08:32N 51°20' E 003°12'0 0.0
2014-Dec-12 07:32N 51°20' E 003°12'0 0.0
2014-Dec-12 06:32N 51°20' E 003°12'0 0.0
2014-Dec-12 05:29N 51°20' E 003°12'0 0.0
2014-Dec-12 04:32N 51°20' E 003°12'0 0.0
2014-Dec-12 03:26N 51°20' E 003°12'0 0.0
2014-Dec-12 02:29N 51°20' E 003°12'0 0.0
2014-Dec-12 01:32N 51°20' E 003°12'0 0.0
2014-Dec-12 00:32N 51°20' E 003°12'0 0.0
2014-Dec-11 23:26N 51°20' E 003°12'0 0.0
2014-Dec-11 22:26N 51°20' E 003°12'0 0.0
2014-Dec-11 21:29N 51°20' E 003°12'0 0.0
2014-Dec-11 20:32N 51°20' E 003°12'0 0.0
2014-Dec-11 19:32N 51°20' E 003°12'0 0.3
2014-Dec-11 18:33N 51°21' E 003°12'4 4.5
2014-Dec-11 17:34N 51°24' E 003°07'1212.2
2014-Dec-11 16:33N 51°25' E 002°47'1110.8
2014-Dec-11 15:31N 51°22' E 002°30'1919.8
2014-Dec-11 14:33N 51°24' E 001°60'2120.7
2014-Dec-11 13:33N 51°42' E 001°45'1515.2
2014-Dec-11 12:34N 51°55' E 001°33'9 9.0
2014-Dec-11 11:33N 51°57' E 001°19'0 0.1
2014-Dec-11 10:31N 51°57' E 001°19'0 0.0
2014-Dec-11 09:31N 51°57' E 001°19'0 0.0
2014-Dec-11 08:31N 51°57' E 001°19'0 0.0
2014-Dec-11 07:31N 51°57' E 001°19'0 0.0
2014-Dec-11 06:31N 51°57' E 001°19'0 0.0
2014-Dec-11 05:31N 51°57' E 001°19'0 0.0
2014-Dec-11 04:31N 51°57' E 001°19'0 0.0
2014-Dec-11 03:31N 51°57' E 001°19'0 0.0
2014-Dec-11 02:31N 51°57' E 001°19'0 0.0
2014-Dec-11 01:31N 51°57' E 001°19'0 0.0
2014-Dec-11 00:31N 51°57' E 001°19'0 0.0
2014-Dec-10 23:31N 51°57' E 001°19'0 0.0
2014-Dec-10 22:31N 51°57' E 001°19'0 0.0
2014-Dec-10 21:31N 51°57' E 001°19'0 0.0
2014-Dec-10 20:28N 51°57' E 001°19'0 0.0
2014-Dec-10 19:28N 51°57' E 001°19'0 0.0
2014-Dec-10 18:31N 51°57' E 001°19'0 0.0
2014-Dec-10 17:28N 51°57' E 001°19'0 0.0
2014-Dec-10 16:31N 51°57' E 001°19'0 0.0
2014-Dec-10 15:31N 51°57' E 001°19'0 0.0
2014-Dec-10 14:31N 51°57' E 001°19'0 0.0
2014-Dec-10 13:31N 51°57' E 001°19'0 0.0
2014-Dec-10 12:31N 51°57' E 001°19'0 0.0
2014-Dec-10 11:31N 51°57' E 001°19'0 0.0
2014-Dec-10 10:31N 51°57' E 001°19'0 0.0
2014-Dec-10 09:31N 51°57' E 001°19'0 0.0
2014-Dec-10 08:31N 51°57' E 001°19'0 0.0
2014-Dec-10 07:31N 51°57' E 001°19'0 0.0
2014-Dec-10 06:31N 51°57' E 001°19'0 0.0
2014-Dec-10 05:31N 51°57' E 001°19'0 0.0
2014-Dec-10 04:31N 51°57' E 001°19'0 0.0
2014-Dec-10 03:31N 51°57' E 001°19'0 0.0
2014-Dec-10 02:31N 51°57' E 001°19'0 0.0
2014-Dec-10 01:31N 51°57' E 001°19'0 0.0
2014-Dec-10 00:31N 51°57' E 001°19'0 0.0
2014-Dec-09 23:31N 51°57' E 001°19'0 0.0
2014-Dec-09 22:31N 51°57' E 001°19'  

Dump ship's entire track history